Time;durP1;ratioP1;P1;durP2;ratioP2;P2;SDS_P1;SDS_P2;PMS_P1;PMS_P2;Temp;Humidity;BMP_temperature;BMP_pressure;BME280_temperature;BME280_humidity;BME280_pressure;Samples;Min_cycle;Max_cycle;Signal;HPM_P1;HPM_P2
2022/05/06 00:01:45;;;;;;;8.43;6.17;;;;;;;14.12;78.68;95463.22;4995205;28;20440;-78
2022/05/06 00:04:12;;;;;;;6.57;6.00;;;;;;;14.09;78.82;95463.50;4995184;28;20443;-78
2022/05/06 00:06:39;;;;;;;7.23;6.50;;;;;;;14.10;78.95;95470.44;4962976;28;20447;-78
2022/05/06 00:09:06;;;;;;;7.73;7.03;;;;;;;14.03;79.49;95465.84;4995331;28;20441;-77
2022/05/06 00:11:35;;;;;;;7.40;6.67;;;;;;;14.02;79.60;95472.94;4995873;28;20474;-79
2022/05/06 00:14:02;;;;;;;6.53;6.03;;;;;;;13.93;79.99;95468.50;4998341;28;20584;-76
2022/05/06 00:16:29;;;;;;;6.60;6.07;;;;;;;13.92;79.80;95472.94;5076635;28;20483;-77
2022/05/06 00:18:56;;;;;;;7.43;6.70;;;;;;;13.94;80.04;95471.00;5076293;28;20421;-77
2022/05/06 00:21:23;;;;;;;6.60;5.87;;;;;;;13.93;80.24;95469.31;5077353;28;20436;-78
2022/05/06 00:23:50;;;;;;;9.30;8.40;;;;;;;13.92;80.02;95474.75;5076115;28;20429;-77
2022/05/06 00:26:17;;;;;;;7.43;6.73;;;;;;;13.90;80.24;95474.88;5024935;28;20441;-77
2022/05/06 00:28:45;;;;;;;7.33;6.57;;;;;;;13.86;80.38;95478.72;5076686;28;20445;-79
2022/05/06 00:31:13;;;;;;;7.60;6.80;;;;;;;13.84;80.19;95475.41;5077132;28;20520;-78
2022/05/06 00:33:40;;;;;;;7.60;7.00;;;;;;;13.80;80.49;95479.28;5076352;28;20584;-78
2022/05/06 00:36:07;;;;;;;7.67;6.83;;;;;;;13.83;80.42;95484.28;5076789;28;20473;-78
2022/05/06 00:38:34;;;;;;;7.60;6.87;;;;;;;13.87;80.26;95484.84;5075922;28;20785;-78
2022/05/06 00:41:01;;;;;;;10.20;7.43;;;;;;;13.69;81.03;95481.19;5024557;28;21278;-78
2022/05/06 00:43:46;;;;;;;7.97;7.17;;;;;;;13.51;82.30;95479.19;5075872;28;20448;-78
2022/05/06 00:46:14;;;;;;;7.87;7.10;;;;;;;13.49;82.42;95480.28;5075985;28;20449;-78
2022/05/06 00:48:43;;;;;;;7.43;6.80;;;;;;;13.44;83.23;95479.88;5076047;28;20467;-78
2022/05/06 00:51:11;;;;;;;9.27;8.37;;;;;;;13.11;84.62;95476.50;5076111;28;20440;-78
2022/05/06 00:53:40;;;;;;;9.20;7.40;;;;;;;13.20;84.22;95485.44;5075612;28;20436;-79
2022/05/06 00:56:10;;;;;;;9.40;8.50;;;;;;;13.27;84.98;95484.78;5075770;28;20571;-77
2022/05/06 00:58:38;;;;;;;8.50;7.70;;;;;;;13.28;84.69;95481.19;5076041;28;20429;-78
2022/05/06 01:01:07;;;;;;;7.73;6.77;;;;;;;13.35;84.14;95475.41;5075855;28;20421;-78
2022/05/06 01:06:56;;;;;;;9.63;8.83;;;;;;;13.48;83.68;95481.25;5075250;28;20454;-77
2022/05/06 01:09:23;;;;;;;8.80;8.00;;;;;;;13.41;83.45;95485.41;5023098;28;20457;-77
2022/05/06 01:11:50;;;;;;;10.70;8.10;;;;;;;13.42;84.19;95487.06;5075892;28;20469;-78
2022/05/06 01:14:31;;;;;;;8.87;7.17;;;;;;;13.44;83.96;95485.97;5075325;28;20468;-77
2022/05/06 01:17:00;;;;;;;9.20;8.13;;;;;;;13.42;84.07;95477.38;5075119;28;20510;-78
2022/05/06 01:19:26;;;;;;;13.50;9.20;;;;;;;13.26;84.59;95474.38;5075120;28;20432;-78
2022/05/06 01:21:56;;;;;;;10.10;8.90;;;;;;;13.27;84.68;95491.84;5075377;28;20441;-78
2022/05/06 01:24:23;;;;;;;10.60;8.33;;;;;;;13.28;85.35;95483.81;5074811;28;20456;-78
2022/05/06 01:26:58;;;;;;;9.27;8.47;;;;;;;13.23;85.66;95475.47;5022333;28;20441;-77
2022/05/06 01:29:25;;;;;;;11.57;10.70;;;;;;;13.17;86.37;95475.13;5073742;28;20443;-78
2022/05/06 01:31:53;;;;;;;9.70;8.70;;;;;;;13.12;86.68;95479.97;5074184;28;20449;-77
2022/05/06 01:34:23;;;;;;;9.10;8.20;;;;;;;13.14;86.80;95475.41;5073548;28;20445;-78
2022/05/06 01:36:53;;;;;;;10.27;9.27;;;;;;;13.21;86.68;95479.22;5073951;28;20476;-78
2022/05/06 01:39:27;;;;;;;10.67;9.70;;;;;;;13.21;86.16;95476.56;5073844;28;20452;-78
2022/05/06 01:41:56;;;;;;;9.37;8.57;;;;;;;13.21;86.39;95476.56;5073824;28;20459;-78
2022/05/06 01:44:27;;;;;;;11.53;8.90;;;;;;;13.28;85.96;95475.06;5073407;28;20448;-78
2022/05/06 01:46:58;;;;;;;10.60;9.60;;;;;;;13.29;85.85;95479.38;5073562;28;20445;-78
2022/05/06 01:49:26;;;;;;;11.57;8.90;;;;;;;13.18;85.55;95472.41;5073335;28;20441;-77
2022/05/06 01:51:56;;;;;;;10.30;9.20;;;;;;;13.28;85.80;95473.25;5073277;28;20445;-79
2022/05/06 01:54:24;;;;;;;9.93;8.90;;;;;;;13.32;85.39;95479.13;5073288;28;20448;-78
2022/05/06 01:56:51;;;;;;;9.50;8.60;;;;;;;13.31;85.36;95473.03;5037783;28;21010;-77
2022/05/06 01:59:18;;;;;;;9.90;8.57;;;;;;;13.25;85.52;95483.25;5073299;28;20499;-79
2022/05/06 02:01:45;;;;;;;9.87;8.97;;;;;;;13.01;86.45;95473.00;5073156;28;20437;-79
2022/05/06 02:06:56;;;;;;;10.47;9.47;;;;;;;12.87;86.64;95476.78;5073143;28;20437;-79
2022/05/06 02:09:24;;;;;;;11.73;9.57;;;;;;;12.89;87.21;95485.38;5072992;28;20444;-78
2022/05/06 02:11:52;;;;;;;10.73;9.80;;;;;;;13.03;86.35;95492.97;5073395;28;20440;-78
2022/05/06 02:14:19;;;;;;;11.23;10.13;;;;;;;12.97;85.93;95487.38;5072422;28;20469;-79
2022/05/06 02:16:46;;;;;;;12.40;10.60;;;;;;;12.66;87.62;95481.22;5037613;28;21002;-78
2022/05/06 02:19:13;;;;;;;12.00;9.13;;;;;;;13.00;86.20;95480.03;5072062;28;20457;-79
2022/05/06 02:21:40;;;;;;;10.90;9.77;;;;;;;13.18;85.89;95487.38;5072788;28;20449;-78
2022/05/06 02:24:07;;;;;;;10.17;9.20;;;;;;;13.31;85.26;95491.47;5072978;28;20449;-78
2022/05/06 02:26:36;;;;;;;10.50;9.47;;;;;;;13.30;84.70;95494.25;5072543;28;20808;-78
2022/05/06 02:29:02;;;;;;;10.77;9.50;;;;;;;13.19;84.74;95486.41;5072794;28;20432;-78
2022/05/06 02:34:16;;;;;;;12.30;10.80;;;;;;;12.99;86.06;95480.16;5028865;28;21151;-78
2022/05/06 02:36:44;;;;;;;10.83;9.60;;;;;;;13.07;85.74;95476.91;5072430;28;20486;-78
2022/05/06 02:39:10;;;;;;;10.87;9.80;;;;;;;13.07;85.32;95469.00;5072560;28;20812;-77
2022/05/06 02:41:39;;;;;;;9.83;8.93;;;;;;;13.07;85.44;95482.16;5072677;28;20467;-78
2022/05/06 02:44:06;;;;;;;13.60;11.20;;;;;;;13.00;85.42;95479.19;5072436;28;20951;-79
2022/05/06 02:46:33;;;;;;;10.53;9.43;;;;;;;13.00;86.10;95476.56;5072412;28;20823;-78
2022/05/06 02:49:01;;;;;;;13.63;8.80;;;;;;;12.89;86.08;95482.75;5072462;28;20552;-78
2022/05/06 02:51:29;;;;;;;10.90;9.50;;;;;;;12.85;86.91;95480.50;5072327;28;20452;-79
2022/05/06 02:53:56;;;;;;;12.87;10.17;;;;;;;12.76;86.94;95479.50;5072098;28;20950;-78
2022/05/06 02:56:23;;;;;;;10.67;9.47;;;;;;;12.63;87.40;95473.56;5071985;28;21122;-78
2022/05/06 02:58:51;;;;;;;14.30;10.03;;;;;;;12.50;87.94;95475.56;5072479;28;20474;-78
2022/05/06 03:01:18;;;;;;;15.57;10.20;;;;;;;12.64;88.19;95486.59;5072091;28;20440;-78
2022/05/06 03:03:45;;;;;;;11.27;9.37;;;;;;;12.63;88.05;95489.38;5037289;28;20520;-79
2022/05/06 03:06:12;;;;;;;10.10;8.97;;;;;;;12.62;87.43;95495.59;5073357;28;20430;-78
2022/05/06 03:08:39;;;;;;;14.17;9.90;;;;;;;12.59;87.30;95488.78;5021954;28;21273;-78
2022/05/06 03:11:06;;;;;;;11.00;8.20;;;;;;;12.61;87.28;95489.50;5073424;28;20531;-78
2022/05/06 03:13:33;;;;;;;9.77;8.90;;;;;;;12.62;87.76;95480.63;5073126;28;20468;-79
2022/05/06 03:16:01;;;;;;;12.00;9.60;;;;;;;12.73;87.12;95492.91;5073672;28;20453;-78
2022/05/06 03:18:28;;;;;;;13.00;10.80;;;;;;;12.70;86.93;95493.97;5073162;28;20429;-77
2022/05/06 03:20:55;;;;;;;11.37;9.30;;;;;;;12.72;86.21;95493.84;5073116;28;20911;-79
2022/05/06 03:23:22;;;;;;;14.50;9.50;;;;;;;12.58;86.83;95494.19;5073123;28;20436;-78
2022/05/06 03:25:49;;;;;;;9.57;8.67;;;;;;;12.40;87.23;95501.78;5073191;28;20429;-78
2022/05/06 03:28:15;;;;;;;11.60;10.50;;;;;;;12.21;88.69;95494.59;5074144;28;20445;-78
2022/05/06 03:30:44;;;;;;;12.40;10.70;;;;;;;12.26;88.15;95489.78;5073794;28;20465;-78
2022/05/06 03:33:15;;;;;;;11.90;10.67;;;;;;;12.31;87.78;95508.66;5077916;28;20432;-78
2022/05/06 03:35:42;;;;;;;10.60;9.50;;;;;;;12.30;88.25;95504.34;5077452;28;20906;-78
2022/05/06 03:38:09;;;;;;;13.20;10.60;;;;;;;12.25;89.13;95506.53;5077238;28;20222;-78
2022/05/06 03:40:36;;;;;;;12.47;9.87;;;;;;;12.37;88.45;95508.16;5058770;28;20471;-79
2022/05/06 03:43:03;;;;;;;13.03;10.00;;;;;;;12.48;89.05;95517.81;5077327;28;20768;-78
2022/05/06 03:45:30;;;;;;;12.50;10.60;;;;;;;12.62;87.86;95517.50;5077626;28;20428;-78
2022/05/06 03:47:58;;;;;;;11.73;10.50;;;;;;;12.79;86.62;95534.53;5077253;28;20436;-78
2022/05/06 03:53:11;;;;;;;10.10;9.10;;;;;;;12.97;85.86;95526.88;5077042;28;20408;-77
2022/05/06 03:59:00;;;;;;;11.30;7.90;;;;;;;13.03;83.71;95532.50;5075675;28;20460;-78
2022/05/06 04:01:27;;;;;;;10.27;9.33;;;;;;;13.07;83.32;95535.69;5025673;28;20436;-78
2022/05/06 04:03:54;;;;;;;10.27;9.33;;;;;;;13.08;83.23;95526.00;5077461;28;20437;-77
2022/05/06 04:06:23;;;;;;;11.13;9.43;;;;;;;13.14;83.00;95533.38;5076516;28;20429;-77
2022/05/06 04:08:50;;;;;;;11.77;8.80;;;;;;;13.08;83.12;95523.34;5025410;28;20989;-77
2022/05/06 04:11:19;;;;;;;11.40;8.67;;;;;;;13.00;82.90;95532.72;5076554;28;20451;-77
2022/05/06 04:13:46;;;;;;;12.50;9.07;;;;;;;12.93;83.24;95528.94;5076599;28;20476;-79
2022/05/06 04:16:14;;;;;;;12.63;9.27;;;;;;;12.67;83.91;95525.00;5076650;28;20440;-77
2022/05/06 04:18:41;;;;;;;14.37;10.10;;;;;;;12.74;84.34;95539.34;5076638;28;20496;-78
2022/05/06 04:23:53;;;;;;;10.43;9.43;;;;;;;12.62;83.84;95532.47;5046809;28;20424;-78
2022/05/06 04:26:20;;;;;;;14.73;9.40;;;;;;;12.65;83.86;95532.19;5041178;28;20805;-78
2022/05/06 04:28:47;;;;;;;10.87;9.37;;;;;;;12.62;83.38;95533.28;5024553;28;20445;-77
2022/05/06 04:31:14;;;;;;;13.50;9.90;;;;;;;12.63;83.59;95534.13;5075847;28;20437;-78
2022/05/06 04:33:42;;;;;;;10.97;9.10;;;;;;;12.58;83.33;95516.09;5076406;28;20452;-78
2022/05/06 04:36:09;;;;;;;9.57;8.63;;;;;;;12.72;82.95;95538.63;5076230;28;20782;-78
2022/05/06 04:38:36;;;;;;;10.37;8.73;;;;;;;12.87;83.26;95547.06;5076004;28;20846;-79
2022/05/06 04:41:05;;;;;;;13.30;9.50;;;;;;;12.93;82.57;95539.47;5076039;28;20441;-78
2022/05/06 04:43:32;;;;;;;18.37;8.40;;;;;;;13.08;82.29;95541.81;5074833;28;20903;-77
2022/05/06 04:45:59;;;;;;;9.43;8.53;;;;;;;13.21;81.76;95539.81;5075924;28;20927;-77
2022/05/06 04:48:26;;;;;;;10.80;8.97;;;;;;;13.26;80.90;95537.63;5075971;28;20452;-77
2022/05/06 04:50:53;;;;;;;10.63;8.50;;;;;;;13.32;80.99;95545.03;5077006;28;20837;-77
2022/05/06 04:53:20;;;;;;;9.37;8.47;;;;;;;13.31;80.25;95552.09;5076021;28;20440;-78
2022/05/06 04:55:52;;;;;;;10.93;8.20;;;;;;;13.23;80.27;95551.06;5075662;28;20420;-78
2022/05/06 04:58:21;;;;;;;8.47;7.77;;;;;;;13.31;80.29;95552.09;5075776;28;20476;-78
2022/05/06 05:00:47;;;;;;;8.23;7.30;;;;;;;13.37;80.25;95553.38;5075952;28;20448;-78
2022/05/06 05:03:15;;;;;;;8.97;8.07;;;;;;;13.41;80.35;95549.50;5075836;28;20433;-78
2022/05/06 05:05:43;;;;;;;10.27;7.77;;;;;;;13.42;79.82;95555.63;5075656;28;20429;-78
2022/05/06 05:18:22;;;;;;;21.87;11.20;;;;;;;13.49;84.16;95562.88;5046642;28;20496;-78
2022/05/06 05:20:50;;;;;;;16.50;14.77;;;;;;;13.40;84.74;95566.28;5004121;28;20441;-81
2022/05/06 05:23:17;;;;;;;20.00;13.83;;;;;;;13.54;84.29;95558.03;5063651;28;20506;-79
2022/05/06 05:25:43;;;;;;;15.33;12.33;;;;;;;13.61;83.18;95569.75;5055064;28;20804;-78
2022/05/06 05:28:10;;;;;;;12.17;10.97;;;;;;;13.68;83.50;95569.22;5055150;28;20458;-78
2022/05/06 05:30:37;;;;;;;16.33;12.30;;;;;;;13.74;83.86;95566.88;5004164;28;20924;-76
2022/05/06 05:33:05;;;;;;;11.30;10.17;;;;;;;13.81;82.92;95569.81;5055518;28;20434;-77
2022/05/06 05:35:33;;;;;;;11.40;10.30;;;;;;;13.66;83.49;95565.88;5055579;28;20484;-78
2022/05/06 05:38:00;;;;;;;13.53;10.37;;;;;;;13.66;83.30;95571.97;5055080;28;20465;-77
2022/05/06 05:40:27;;;;;;;11.83;10.70;;;;;;;13.75;83.13;95570.34;5072955;28;20939;-77
2022/05/06 05:42:54;;;;;;;12.97;10.77;;;;;;;13.71;82.26;95577.69;5074813;28;20796;-77
2022/05/06 05:48:20;;;;;;;14.43;11.90;;;;;;;13.92;83.08;95564.44;5074862;28;21152;-78
2022/05/06 05:50:49;;;;;;;12.00;10.50;;;;;;;14.06;82.62;95566.69;5075161;28;20448;-78
2022/05/06 05:53:16;;;;;;;11.97;10.80;;;;;;;14.03;82.63;95553.78;5074755;28;20492;-78
2022/05/06 05:55:43;;;;;;;11.93;10.50;;;;;;;14.17;81.50;95561.34;5039490;28;20437;-78
2022/05/06 05:58:10;;;;;;;11.53;9.90;;;;;;;14.25;80.67;95553.56;5075179;28;20572;-79
2022/05/06 06:00:37;;;;;;;16.23;9.43;;;;;;;14.40;80.35;95548.69;5074651;28;20421;-78
2022/05/06 06:03:04;;;;;;;14.20;11.17;;;;;;;14.66;80.35;95564.03;5074904;28;20436;-78
2022/05/06 06:05:31;;;;;;;15.17;10.77;;;;;;;15.08;80.06;95567.25;5074591;28;20445;-78
2022/05/06 06:07:59;;;;;;;12.50;9.00;;;;;;;15.63;81.59;95563.00;5074625;28;20432;-78
2022/05/06 06:10:26;;;;;;;13.33;9.97;;;;;;;16.09;76.83;95562.09;5074767;28;20452;-78
2022/05/06 06:12:53;;;;;;;16.33;10.23;;;;;;;16.37;73.82;95567.38;5074631;28;20452;-78
2022/05/06 06:15:19;;;;;;;11.47;9.60;;;;;;;16.62;72.94;95569.28;5074019;28;20441;-78
2022/05/06 06:17:46;;;;;;;11.10;10.10;;;;;;;16.90;70.63;95563.97;5074404;28;20480;-79
2022/05/06 06:20:13;;;;;;;11.63;9.83;;;;;;;17.16;70.40;95569.31;5039097;28;20445;-78
2022/05/06 06:22:40;;;;;;;15.50;8.87;;;;;;;17.30;69.94;95561.63;5074411;28;20448;-79
2022/05/06 06:31:52;;;;;;;15.70;8.57;;;;;;;17.80;67.55;95568.94;5073898;28;20907;-79
2022/05/06 06:34:19;;;;;;;12.03;9.13;;;;;;;17.97;65.98;95572.53;5073649;28;20432;-78
2022/05/06 06:36:46;;;;;;;10.00;8.90;;;;;;;18.14;66.10;95570.78;5074264;28;20539;-78
2022/05/06 06:39:13;;;;;;;9.80;7.03;;;;;;;18.30;65.79;95560.22;5073576;28;20469;-79
2022/05/06 06:41:40;;;;;;;8.93;8.03;;;;;;;18.31;63.79;95556.56;5073625;28;20433;-81
2022/05/06 06:44:07;;;;;;;8.47;7.73;;;;;;;18.10;63.88;95550.84;5073476;28;20430;-79
2022/05/06 06:53:18;;;;;;;18.53;8.37;;;;;;;17.80;64.94;95557.50;5053389;28;20393;-79
2022/05/06 06:55:45;;;;;;;14.00;8.13;;;;;;;17.43;66.03;95555.94;5071057;28;20444;-80
2022/05/06 06:58:12;;;;;;;17.00;7.50;;;;;;;17.04;68.26;95558.94;5070756;28;20603;-79
2022/05/06 07:00:39;;;;;;;11.77;7.17;;;;;;;16.98;69.39;95551.59;5059576;28;20444;-79
2022/05/06 07:03:06;;;;;;;8.37;7.40;;;;;;;16.79;68.50;95551.78;5073668;28;20429;-79
2022/05/06 07:05:32;;;;;;;16.10;8.13;;;;;;;16.89;69.37;95557.81;5052798;28;20418;-78
2022/05/06 07:17:25;;;;;;;8.40;6.63;;;;;;;17.43;69.60;95545.31;5030945;28;20457;-79
2022/05/06 07:19:52;;;;;;;7.43;6.80;;;;;;;17.42;67.17;95542.81;5011539;28;20436;-78
2022/05/06 07:22:19;;;;;;;7.70;7.00;;;;;;;17.79;67.33;95548.69;5011378;28;20448;-79
2022/05/06 07:24:47;;;;;;;7.33;6.73;;;;;;;18.01;65.84;95554.47;5011555;28;20435;-78
2022/05/06 07:27:17;;;;;;;7.50;6.90;;;;;;;18.18;67.12;95550.84;5011938;28;20451;-78
2022/05/06 07:29:44;;;;;;;11.03;7.90;;;;;;;18.24;65.75;95550.25;5011864;28;20804;-78
2022/05/06 07:32:11;;;;;;;8.17;7.37;;;;;;;18.40;66.23;95539.66;5011742;28;20878;-79
2022/05/06 07:34:38;;;;;;;11.03;6.93;;;;;;;18.20;63.82;95547.03;5011747;28;20823;-78
2022/05/06 07:37:08;;;;;;;8.03;7.37;;;;;;;18.04;65.61;95549.66;5011776;28;20439;-78
2022/05/06 07:39:35;;;;;;;8.10;6.40;;;;;;;18.11;65.41;95540.03;5011328;28;20510;-78
2022/05/06 07:42:05;;;;;;;7.67;6.47;;;;;;;18.29;64.86;95547.94;4995107;28;20448;-78
2022/05/06 07:44:33;;;;;;;7.93;7.23;;;;;;;18.38;65.20;95552.25;5011457;28;20440;-78
2022/05/06 07:47:00;;;;;;;10.67;6.77;;;;;;;18.47;65.44;95551.28;5011703;28;20820;-78
2022/05/06 07:49:27;;;;;;;7.23;6.53;;;;;;;18.71;64.92;95557.69;5022404;28;20504;-77
2022/05/06 07:51:54;;;;;;;9.70;7.87;;;;;;;18.51;65.12;95547.34;5014897;28;20926;-78
2022/05/06 07:54:21;;;;;;;7.90;6.40;;;;;;;18.60;64.26;95544.69;5033711;28;20442;-78
2022/05/06 07:56:48;;;;;;;8.60;6.50;;;;;;;18.75;63.56;95537.75;5033305;28;20442;-78
2022/05/06 07:59:15;;;;;;;9.23;6.70;;;;;;;18.98;62.63;95543.25;5032717;28;20470;-78
2022/05/06 08:04:34;;;;;;;7.33;6.73;;;;;;;18.64;62.63;95551.38;5032913;28;20409;-78
2022/05/06 08:07:01;;;;;;;7.50;6.50;;;;;;;18.47;62.30;95542.47;5033647;28;20451;-79
2022/05/06 08:09:28;;;;;;;7.03;6.43;;;;;;;18.27;62.77;95544.59;5032850;28;20445;-78
2022/05/06 08:11:55;;;;;;;7.33;6.73;;;;;;;18.45;63.36;95542.63;5032951;28;20466;-78
2022/05/06 08:14:21;;;;;;;8.03;7.33;;;;;;;18.58;64.22;95543.03;5033233;28;20787;-77
2022/05/06 08:16:51;;;;;;;8.97;6.40;;;;;;;18.33;63.63;95535.97;5034460;28;20749;-77
2022/05/06 08:19:19;;;;;;;13.23;6.93;;;;;;;18.56;64.39;95533.53;5068201;28;20488;-78
2022/05/06 08:21:46;;;;;;;7.97;7.17;;;;;;;18.67;63.82;95533.25;5077011;28;20439;-78
2022/05/06 08:24:14;;;;;;;8.97;6.73;;;;;;;18.55;61.92;95539.88;5076456;28;20876;-78
2022/05/06 08:26:41;;;;;;;7.60;6.90;;;;;;;18.83;63.96;95532.47;5076879;28;20429;-78
2022/05/06 08:29:08;;;;;;;6.97;6.10;;;;;;;18.81;62.73;95527.31;5024601;28;20448;-78
2022/05/06 08:31:37;;;;;;;6.47;5.87;;;;;;;19.12;63.96;95529.31;5076319;28;20433;-78
2022/05/06 08:34:08;;;;;;;6.50;5.90;;;;;;;19.26;63.11;95525.13;5077150;28;20432;-78
2022/05/06 08:36:35;;;;;;;10.17;6.60;;;;;;;19.36;62.92;95531.94;5076337;28;20452;-77
2022/05/06 08:39:03;;;;;;;10.70;6.73;;;;;;;19.51;62.92;95521.44;5076059;28;20473;-78
2022/05/06 08:41:30;;;;;;;6.60;6.10;;;;;;;19.44;60.10;95526.63;5076229;28;20787;-78
2022/05/06 08:43:58;;;;;;;7.67;7.07;;;;;;;19.57;59.81;95523.44;5024310;28;20444;-78
2022/05/06 08:52:08;;;;;;;8.00;6.60;;;;;;;20.05;56.64;95511.00;5014159;28;20539;-77
2022/05/06 08:54:35;;;;;;;8.63;6.67;;;;;;;20.25;56.81;95512.25;5014306;28;20558;-78
2022/05/06 08:57:02;;;;;;;7.07;6.40;;;;;;;20.36;57.00;95509.16;5014007;28;20454;-78
2022/05/06 08:59:29;;;;;;;9.17;6.77;;;;;;;20.21;53.67;95515.41;5014369;28;20495;-78
2022/05/06 09:01:56;;;;;;;5.97;5.47;;;;;;;19.94;54.90;95500.69;5014019;28;20988;-78
2022/05/06 09:04:25;;;;;;;6.77;6.27;;;;;;;19.99;53.62;95517.84;5013677;28;20444;-77
2022/05/06 09:07:13;;;;;;;6.67;6.00;;;;;;;20.01;53.95;95504.34;4981082;28;20985;-79
2022/05/06 09:09:40;;;;;;;6.47;5.97;;;;;;;19.90;53.91;95504.72;5013949;28;20455;-80
2022/05/06 09:17:47;;;;;;;7.93;5.77;;;;;;;19.25;53.95;95502.19;4993898;28;20483;-79
2022/05/06 09:20:21;;;;;;;6.53;6.03;;;;;;;19.11;53.23;95507.19;5005999;28;20440;-78
2022/05/06 09:22:50;;;;;;;7.23;6.53;;;;;;;19.10;53.36;95502.03;5013295;28;20471;-77
2022/05/06 09:25:35;;;;;;;8.57;6.47;;;;;;;19.32;55.60;95503.16;5048375;28;20821;-79
2022/05/06 09:28:03;;;;;;;6.93;6.37;;;;;;;19.35;54.32;95495.66;5075038;28;20453;-78
2022/05/06 09:30:30;;;;;;;6.03;5.53;;;;;;;19.43;56.75;95503.66;5075168;28;20421;-78
2022/05/06 09:32:56;;;;;;;5.80;5.40;;;;;;;19.19;55.09;95501.84;5075534;28;20523;-78
2022/05/06 09:35:28;;;;;;;6.57;6.07;;;;;;;19.31;56.62;95490.84;5056989;28;20443;-77
2022/05/06 09:37:55;;;;;;;6.53;6.03;;;;;;;19.39;56.28;95482.88;5075565;28;20421;-79
2022/05/06 09:40:28;;;;;;;7.87;6.20;;;;;;;19.24;54.58;95479.22;5075236;28;20425;-78
2022/05/06 09:43:00;;;;;;;7.60;6.90;;;;;;;19.17;55.74;95481.75;5075019;28;20449;-77
2022/05/06 09:45:31;;;;;;;6.90;6.20;;;;;;;19.19;55.76;95491.22;5074217;28;20457;-78
2022/05/06 09:47:59;;;;;;;6.47;5.87;;;;;;;19.27;53.81;95486.88;5074602;28;20449;-78
2022/05/06 09:50:35;;;;;;;7.83;6.40;;;;;;;19.30;55.21;95482.03;5074671;28;20506;-80
2022/05/06 09:53:02;;;;;;;6.37;5.30;;;;;;;19.06;53.98;95482.91;5075041;28;20512;-79
2022/05/06 09:55:30;;;;;;;7.33;6.07;;;;;;;19.22;55.49;95478.56;5074950;28;20453;-79
2022/05/06 09:57:59;;;;;;;8.97;6.00;;;;;;;19.07;55.24;95479.25;5074532;28;20872;-79
2022/05/06 10:00:26;;;;;;;7.03;6.43;;;;;;;19.19;55.83;95467.28;5074592;28;21006;-78
2022/05/06 10:02:53;;;;;;;10.93;7.47;;;;;;;19.29;55.73;95471.56;5074746;28;20885;-79
2022/05/06 10:05:20;;;;;;;6.00;5.60;;;;;;;19.26;53.75;95477.22;5074302;28;20915;-79
2022/05/06 10:07:52;;;;;;;6.80;6.20;;;;;;;19.24;53.21;95468.59;5074405;28;20915;-78
2022/05/06 10:10:22;;;;;;;6.60;6.00;;;;;;;19.21;50.96;95474.25;5074178;28;20445;-79
2022/05/06 10:12:53;;;;;;;5.90;5.50;;;;;;;19.26;50.31;95471.91;5074761;28;20809;-78
2022/05/06 10:15:24;;;;;;;6.60;6.00;;;;;;;19.42;51.36;95461.25;5074298;28;20482;-80
2022/05/06 10:17:53;;;;;;;5.30;4.83;;;;;;;19.59;49.15;95473.53;5039516;28;20551;-79
2022/05/06 10:20:48;;;;;;;6.03;5.53;;;;;;;19.84;49.47;95482.25;5073896;28;21100;-80
2022/05/06 10:23:18;;;;;;;7.60;5.57;;;;;;;19.79;49.30;95468.63;5074793;28;21189;-79
2022/05/06 10:25:54;;;;;;;4.60;4.30;;;;;;;19.55;47.89;95471.38;5074501;28;20429;-78
2022/05/06 10:34:30;;;;;;;5.63;5.10;;;;;;;19.48;48.60;95471.22;5074139;28;20459;-81
2022/05/06 10:37:00;;;;;;;5.47;5.07;;;;;;;19.38;48.96;95457.28;5069150;28;20494;-80
2022/05/06 10:39:34;;;;;;;5.90;5.37;;;;;;;19.56;47.55;95462.38;5074671;28;20504;-80
2022/05/06 10:42:03;;;;;;;6.40;5.33;;;;;;;19.66;47.98;95458.53;5072948;28;20471;-79
2022/05/06 10:44:38;;;;;;;4.97;4.57;;;;;;;19.72;48.16;95452.53;5073566;28;20486;-80
2022/05/06 10:47:40;;;;;;;5.23;4.70;;;;;;;19.80;45.23;95455.16;5053672;28;20429;-79
2022/05/06 10:50:18;;;;;;;4.90;4.50;;;;;;;19.90;45.47;95443.44;4995746;28;20451;-80
2022/05/06 10:52:46;;;;;;;5.30;4.90;;;;;;;19.97;46.86;95439.09;5011946;28;20446;-80
2022/05/06 10:55:25;;;;;;;5.80;5.40;;;;;;;20.00;47.16;95444.09;5005645;28;21002;-79
2022/05/06 10:58:07;;;;;;;5.10;4.70;;;;;;;19.95;46.39;95447.28;4992236;28;20459;-80
2022/05/06 11:00:38;;;;;;;5.60;5.20;;;;;;;20.15;48.72;95439.66;4992075;28;20825;-80
2022/05/06 11:03:05;;;;;;;7.90;4.80;;;;;;;20.14;46.19;95439.84;4992017;28;20432;-80
2022/05/06 11:05:33;;;;;;;5.87;5.37;;;;;;;20.08;45.49;95441.38;4992061;28;20467;-79
2022/05/06 11:08:02;;;;;;;6.23;5.23;;;;;;;20.19;46.52;95435.63;4991105;28;20974;-78
2022/05/06 11:10:33;;;;;;;5.87;5.30;;;;;;;20.05;46.80;95431.06;4991083;28;20464;-80
2022/05/06 11:13:01;;;;;;;4.37;4.00;;;;;;;20.03;44.97;95430.41;4992021;28;20425;-81
2022/05/06 11:15:45;;;;;;;7.17;5.60;;;;;;;20.19;45.67;95424.97;4991957;28;20476;-79
2022/05/06 11:18:12;;;;;;;6.30;4.97;;;;;;;20.14;45.55;95424.66;4991695;28;20480;-80
2022/05/06 11:20:39;;;;;;;7.10;5.40;;;;;;;20.27;45.57;95419.59;4991663;28;20498;-80
2022/05/06 11:23:07;;;;;;;9.40;5.50;;;;;;;20.12;44.57;95416.03;4992037;28;20531;-80
2022/05/06 11:25:37;;;;;;;5.20;4.70;;;;;;;20.24;44.95;95417.31;4992423;28;20475;-80
2022/05/06 11:28:10;;;;;;;6.53;4.63;;;;;;;20.19;44.57;95408.97;5054020;28;20471;-79
2022/05/06 11:30:37;;;;;;;4.83;4.53;;;;;;;20.29;43.66;95422.94;5072999;28;20440;-80
2022/05/06 11:33:05;;;;;;;4.83;4.43;;;;;;;20.22;43.14;95419.28;5073290;28;20429;-79
2022/05/06 11:35:36;;;;;;;5.03;4.63;;;;;;;20.41;44.06;95412.69;5072874;28;20457;-79
2022/05/06 11:38:05;;;;;;;4.67;4.37;;;;;;;20.29;43.47;95406.94;5038073;28;20437;-80
2022/05/06 11:40:39;;;;;;;7.07;4.90;;;;;;;20.40;44.24;95398.53;5072655;28;20484;-79
2022/05/06 11:43:09;;;;;;;4.43;4.13;;;;;;;20.40;42.23;95392.38;5062707;28;20447;-80
2022/05/06 11:48:29;;;;;;;5.30;4.90;;;;;;;20.27;43.06;95392.97;5027304;28;20428;-77
2022/05/06 11:50:59;;;;;;;5.30;4.70;;;;;;;20.37;44.60;95398.88;5011332;28;20446;-79
2022/05/06 11:53:27;;;;;;;6.00;4.13;;;;;;;20.50;43.61;95398.28;5014127;28;20450;-78
2022/05/06 11:55:55;;;;;;;5.17;4.73;;;;;;;20.49;42.91;95388.63;5014586;28;20455;-79
2022/05/06 11:58:26;;;;;;;4.87;4.50;;;;;;;20.41;42.28;95389.53;5015113;28;20448;-78
2022/05/06 12:00:54;;;;;;;4.20;3.80;;;;;;;20.18;41.12;95383.34;5014660;28;20483;-80
2022/05/06 12:03:23;;;;;;;4.80;3.63;;;;;;;20.16;41.35;95387.19;5013930;28;20476;-79
2022/05/06 12:06:09;;;;;;;4.23;3.93;;;;;;;20.41;43.44;95376.22;5014810;28;20455;-78
2022/05/06 12:08:37;;;;;;;5.13;4.20;;;;;;;20.36;41.28;95386.56;5015314;28;20432;-80
2022/05/06 12:11:09;;;;;;;5.90;4.83;;;;;;;20.27;42.28;95371.63;5014583;28;20460;-79
2022/05/06 12:13:40;;;;;;;4.53;4.10;;;;;;;20.22;41.53;95373.97;5014838;28;20500;-79
2022/05/06 12:16:13;;;;;;;4.17;3.73;;;;;;;20.46;41.37;95367.66;5014742;28;20494;-79
2022/05/06 12:18:53;;;;;;;5.20;4.47;;;;;;;20.55;41.08;95363.94;5014600;28;20606;-78
2022/05/06 12:21:25;;;;;;;4.93;4.63;;;;;;;20.59;40.82;95367.09;5014483;28;20992;-78
2022/05/06 12:23:58;;;;;;;4.40;4.00;;;;;;;20.69;40.75;95348.97;5035243;28;20445;-77
2022/05/06 12:26:33;;;;;;;6.20;3.37;;;;;;;20.62;37.87;95361.38;5076869;28;20436;-78
2022/05/06 12:29:03;;;;;;;3.83;3.53;;;;;;;20.64;38.76;95349.53;5076590;28;20437;-80
2022/05/06 12:31:31;;;;;;;5.70;4.50;;;;;;;20.63;40.25;95355.88;5076154;28;20927;-79
2022/05/06 12:37:53;;;;;;;4.35;3.70;;;;;;;20.68;37.82;95347.31;5075861;28;20509;-79
2022/05/06 12:40:20;;;;;;;4.20;3.13;;;;;;;20.84;37.00;95333.84;5076233;28;20211;-78
2022/05/06 12:43:03;;;;;;;4.67;3.50;;;;;;;21.02;36.77;95336.97;5075980;28;20903;-78
2022/05/06 12:45:32;;;;;;;3.87;3.57;;;;;;;20.90;35.94;95342.94;5076573;28;20444;-80
2022/05/06 12:50:42;;;;;;;3.97;3.57;;;;;;;21.12;37.21;95317.22;5076385;28;20440;-78
2022/05/06 12:53:09;;;;;;;3.77;3.47;;;;;;;21.21;37.47;95316.09;5075829;28;20453;-78
2022/05/06 12:55:37;;;;;;;3.63;3.30;;;;;;;21.20;34.61;95309.91;5076454;28;20778;-77
2022/05/06 12:58:04;;;;;;;2.90;2.70;;;;;;;21.02;32.17;95306.78;5076183;28;20437;-80
2022/05/06 13:00:33;;;;;;;3.40;3.10;;;;;;;21.09;34.22;95298.88;5076706;28;20564;-79